createdAt,value
2023-05-21T00:00:19.135Z,14.60
2023-05-21T00:02:52.156Z,14.67
2023-05-21T00:05:19.308Z,14.48
2023-05-21T00:08:09.202Z,14.60
2023-05-21T00:10:42.900Z,14.58
2023-05-21T00:13:17.122Z,14.56
2023-05-21T00:15:44.509Z,14.53
2023-05-21T00:18:19.129Z,14.51
2023-05-21T00:20:46.185Z,14.46
2023-05-21T00:23:20.122Z,14.43
2023-05-21T00:25:47.152Z,14.48
2023-05-21T00:28:20.112Z,14.38
2023-05-21T00:30:54.091Z,14.44
2023-05-21T00:33:29.155Z,14.43
2023-05-21T00:36:03.076Z,14.40
2023-05-21T00:38:36.053Z,14.49
2023-05-21T00:41:09.212Z,14.35
2023-05-21T00:43:51.065Z,14.36
2023-05-21T00:46:26.240Z,14.28
2023-05-21T00:49:02.079Z,14.25
2023-05-21T00:51:38.167Z,14.31
2023-05-21T00:54:05.021Z,14.34
2023-05-21T00:56:40.184Z,14.34
2023-05-21T00:59:07.844Z,14.38
2023-05-21T01:01:44.238Z,14.34
2023-05-21T01:04:12.326Z,14.19
2023-05-21T01:06:46.109Z,14.07
2023-05-21T01:09:13.213Z,14.04
2023-05-21T01:11:58.077Z,14.16
2023-05-21T01:14:25.758Z,14.15
2023-05-21T01:17:00.163Z,13.94
2023-05-21T01:19:33.279Z,13.97
2023-05-21T01:22:15.278Z,13.76
2023-05-21T01:24:54.101Z,13.79
2023-05-21T01:27:21.366Z,13.86
2023-05-21T01:29:55.169Z,13.68
2023-05-21T01:32:28.772Z,13.64
2023-05-21T01:35:44.135Z,13.68
2023-05-21T01:38:26.736Z,13.60
2023-05-21T01:41:15.324Z,13.67
2023-05-21T01:43:49.132Z,13.56
2023-05-21T01:46:27.192Z,13.66
2023-05-21T01:48:59.473Z,13.66
2023-05-21T01:51:34.151Z,13.55
2023-05-21T01:54:03.744Z,13.63
2023-05-21T01:56:40.193Z,13.52
2023-05-21T01:59:09.558Z,13.41
2023-05-21T02:01:43.165Z,13.47
2023-05-21T02:04:10.264Z,13.47
2023-05-21T02:06:46.346Z,13.44
2023-05-21T02:09:13.409Z,13.27
2023-05-21T02:11:47.281Z,13.26
2023-05-21T02:14:23.211Z,13.37
2023-05-21T02:16:51.038Z,13.16
2023-05-21T02:19:27.359Z,13.07
2023-05-21T02:21:57.227Z,13.01
2023-05-21T02:24:34.180Z,13.05
2023-05-21T02:27:01.313Z,12.89
2023-05-21T02:29:35.299Z,12.80
2023-05-21T02:32:09.342Z,12.95
2023-05-21T02:34:44.175Z,12.77
2023-05-21T02:37:14.289Z,12.68
2023-05-21T02:39:48.266Z,12.63
2023-05-21T02:42:29.308Z,12.63
2023-05-21T02:45:05.979Z,12.58
2023-05-21T02:47:34.764Z,12.52
2023-05-21T02:50:11.607Z,12.52
2023-05-21T02:52:38.692Z,12.50
2023-05-21T02:55:06.386Z,12.41
2023-05-21T02:57:40.125Z,12.45
2023-05-21T03:00:15.227Z,12.35
2023-05-21T03:02:43.313Z,12.42
2023-05-21T03:05:11.114Z,12.47
2023-05-21T03:07:45.257Z,12.34
2023-05-21T03:10:25.118Z,12.41
2023-05-21T03:12:53.815Z,12.30
2023-05-21T03:15:30.361Z,12.24
2023-05-21T03:18:04.366Z,12.35
2023-05-21T03:20:39.421Z,12.35
2023-05-21T03:23:16.901Z,12.22
2023-05-21T03:25:51.347Z,12.18
2023-05-21T03:28:25.213Z,12.24
2023-05-21T03:30:53.687Z,12.11
2023-05-21T03:33:27.283Z,12.06
2023-05-21T03:35:55.250Z,12.13
2023-05-21T03:38:25.435Z,11.99
2023-05-21T03:40:59.274Z,11.99
2023-05-21T03:43:33.158Z,11.95
2023-05-21T03:46:06.223Z,12.02
2023-05-21T03:48:33.181Z,11.98
2023-05-21T03:51:09.157Z,12.12
2023-05-21T03:53:37.523Z,11.94
2023-05-21T03:56:11.259Z,12.08
2023-05-21T03:58:38.846Z,12.06
2023-05-21T04:01:06.024Z,12.09
2023-05-21T04:03:42.525Z,12.04
2023-05-21T04:06:10.569Z,12.12
2023-05-21T04:08:45.358Z,12.24
2023-05-21T04:11:22.284Z,12.24
2023-05-21T04:13:49.543Z,12.14
2023-05-21T04:16:25.386Z,12.18
2023-05-21T04:18:55.731Z,12.43
2023-05-21T04:21:29.206Z,12.35
2023-05-21T04:24:04.191Z,12.34
2023-05-21T04:26:41.280Z,12.36
2023-05-21T04:29:16.269Z,12.42
2023-05-21T04:31:43.745Z,12.46
2023-05-21T04:34:17.358Z,12.60
2023-05-21T04:36:45.933Z,12.55
2023-05-21T04:39:20.351Z,12.57
2023-05-21T04:41:55.252Z,12.59
2023-05-21T04:44:39.391Z,12.63
2023-05-21T04:47:15.154Z,12.78
2023-05-21T04:49:49.312Z,12.72
2023-05-21T04:52:17.088Z,12.73
2023-05-21T04:54:52.375Z,12.93
2023-05-21T04:57:19.926Z,12.82
2023-05-21T04:59:56.291Z,12.88
2023-05-21T05:02:30.352Z,13.02
2023-05-21T05:05:00.227Z,12.87
2023-05-21T05:07:37.434Z,13.04
2023-05-21T05:10:07.659Z,12.94
2023-05-21T05:12:41.370Z,13.02
2023-05-21T05:15:09.760Z,12.97
2023-05-21T05:17:43.378Z,13.10
2023-05-21T05:20:12.356Z,13.26
2023-05-21T05:22:48.272Z,13.28
2023-05-21T05:25:19.034Z,13.14
2023-05-21T05:27:52.387Z,13.16
2023-05-21T05:30:26.513Z,13.31
2023-05-21T05:33:00.316Z,13.25
2023-05-21T05:35:27.693Z,13.49
2023-05-21T05:38:01.366Z,13.34
2023-05-21T05:40:28.462Z,13.40
2023-05-21T05:43:08.343Z,13.46
2023-05-21T05:45:42.354Z,13.61
2023-05-21T05:48:10.466Z,13.67
2023-05-21T05:50:44.329Z,13.64
2023-05-21T05:53:13.765Z,13.67
2023-05-21T05:55:48.272Z,13.76
2023-05-21T05:58:15.616Z,13.65
2023-05-21T06:00:49.380Z,13.71
2023-05-21T06:03:19.022Z,13.82
2023-05-21T06:05:52.377Z,13.75
2023-05-21T06:08:19.517Z,13.74
2023-05-21T06:10:55.343Z,13.96
2023-05-21T06:13:22.320Z,13.92
2023-05-21T06:16:01.054Z,13.82
2023-05-21T06:18:34.353Z,13.88
2023-05-21T06:21:08.285Z,13.97
2023-05-21T06:23:37.008Z,14.01
2023-05-21T06:26:14.304Z,14.05
2023-05-21T06:28:54.428Z,14.22
2023-05-21T06:31:29.316Z,14.24
2023-05-21T06:33:56.448Z,14.15
2023-05-21T06:36:32.342Z,14.22
2023-05-21T06:39:08.300Z,14.42
2023-05-21T06:41:55.261Z,14.40
2023-05-21T06:44:22.458Z,14.36
2023-05-21T06:46:51.998Z,14.47
2023-05-21T06:49:25.352Z,14.52
2023-05-21T06:51:52.303Z,14.69
2023-05-21T06:54:28.335Z,14.67
2023-05-21T06:57:01.359Z,14.72
2023-05-21T06:59:28.356Z,14.65
2023-05-21T07:02:04.465Z,14.66
2023-05-21T07:04:38.362Z,14.63
2023-05-21T07:07:05.373Z,14.74
2023-05-21T07:09:41.348Z,14.82
2023-05-21T07:12:08.314Z,14.83
2023-05-21T07:14:35.234Z,14.97
2023-05-21T07:17:08.452Z,14.90
2023-05-21T07:19:42.371Z,15.01
2023-05-21T07:22:15.349Z,15.15
2023-05-21T07:24:42.302Z,15.31
2023-05-21T07:27:25.398Z,15.41
2023-05-21T07:29:53.048Z,15.38
2023-05-21T07:32:26.409Z,15.51
2023-05-21T07:34:54.406Z,15.47
2023-05-21T07:37:28.378Z,15.54
2023-05-21T07:39:58.980Z,15.63
2023-05-21T07:42:39.371Z,15.71
2023-05-21T07:45:09.784Z,15.69
2023-05-21T07:47:43.593Z,15.89
2023-05-21T07:50:11.345Z,15.95
2023-05-21T07:52:44.480Z,15.89
2023-05-21T07:55:11.438Z,16.10
2023-05-21T07:57:44.334Z,16.04
2023-05-21T08:00:14.480Z,16.18
2023-05-21T08:02:41.530Z,16.30
2023-05-21T08:05:18.743Z,16.44
2023-05-21T08:07:53.403Z,16.62
2023-05-21T08:10:26.427Z,16.78
2023-05-21T08:12:53.260Z,16.80
2023-05-21T08:15:26.566Z,16.85
2023-05-21T08:17:53.437Z,16.93
2023-05-21T12:27:06.496Z,24.20
2023-05-21T12:29:40.494Z,24.42
2023-05-21T12:32:15.553Z,24.55
2023-05-21T12:34:44.938Z,24.64
2023-05-21T12:37:31.697Z,24.78
2023-05-21T12:40:00.724Z,24.80
2023-05-21T12:42:42.555Z,24.91
2023-05-21T12:45:10.528Z,24.84
2023-05-21T12:47:44.627Z,24.80
2023-05-21T12:50:12.961Z,24.89
2023-05-21T12:52:49.689Z,25.05
2023-05-21T12:55:17.609Z,25.16
2023-05-21T12:57:50.571Z,25.24
2023-05-21T13:00:30.645Z,25.26
2023-05-21T13:03:00.347Z,25.29
2023-05-21T13:05:33.495Z,25.33
2023-05-21T13:08:00.322Z,24.90
2023-05-21T13:10:33.543Z,24.97
2023-05-21T13:13:00.587Z,25.38
2023-05-21T13:15:34.681Z,25.67
2023-05-21T13:18:02.427Z,25.61
2023-05-21T13:20:36.975Z,25.87
2023-05-21T13:23:07.203Z,25.95
2023-05-21T13:25:41.569Z,25.98
2023-05-21T13:28:16.282Z,26.14
2023-05-21T13:30:49.597Z,26.12
2023-05-21T13:33:16.950Z,26.23
2023-05-21T13:35:52.553Z,26.15
2023-05-21T13:38:19.600Z,26.13
2023-05-21T13:40:46.611Z,26.09
2023-05-21T13:43:19.574Z,26.21
2023-05-21T13:45:49.703Z,26.18
2023-05-21T13:48:23.764Z,26.41
2023-05-21T13:50:50.773Z,26.76
2023-05-21T13:53:26.562Z,26.57
2023-05-21T13:55:53.697Z,26.38
2023-05-21T13:58:27.579Z,26.32
2023-05-21T14:00:54.772Z,26.14
2023-05-21T14:03:28.610Z,26.22
2023-05-21T14:05:56.207Z,26.28
2023-05-21T14:08:30.600Z,26.36
2023-05-21T14:11:05.029Z,26.16
2023-05-21T14:13:32.793Z,26.35
2023-05-21T14:16:06.608Z,26.65
2023-05-21T14:18:33.649Z,26.52
2023-05-21T14:21:06.711Z,26.38
2023-05-21T14:23:33.681Z,26.54
2023-05-21T14:26:07.595Z,26.55
2023-05-21T14:28:40.839Z,26.59
2023-05-21T14:31:20.734Z,26.63
2023-05-21T14:33:47.759Z,26.51
2023-05-21T14:36:21.773Z,26.45
2023-05-21T14:38:55.622Z,26.20
2023-05-21T14:41:35.856Z,25.95
2023-05-21T14:44:03.340Z,25.82
2023-05-21T14:46:36.860Z,25.70
2023-05-21T14:49:10.594Z,25.52
2023-05-21T14:51:37.347Z,25.52
2023-05-21T14:54:10.632Z,25.37
2023-05-21T14:56:37.516Z,25.27
2023-05-21T14:59:10.641Z,25.19
2023-05-21T15:01:37.714Z,24.93
2023-05-21T15:04:11.844Z,24.84
2023-05-21T15:06:38.982Z,24.92
2023-05-21T15:09:12.594Z,25.00
2023-05-21T15:11:40.446Z,25.10
2023-05-21T15:14:14.852Z,25.09
2023-05-21T15:16:42.252Z,25.19
2023-05-21T15:19:15.708Z,25.26
2023-05-21T15:21:42.781Z,25.29
2023-05-21T15:24:18.832Z,25.42
2023-05-21T15:26:52.639Z,25.52
2023-05-21T15:29:25.895Z,25.69
2023-05-21T15:31:59.638Z,25.97
2023-05-21T15:34:26.952Z,26.02
2023-05-21T15:37:00.667Z,25.94
2023-05-21T15:39:27.837Z,25.81
2023-05-21T15:42:01.580Z,25.68
2023-05-21T15:44:28.548Z,25.78
2023-05-21T15:47:01.974Z,25.87
2023-05-21T15:49:29.220Z,25.85
2023-05-21T15:52:04.663Z,25.72
2023-05-21T15:54:37.646Z,25.72
2023-05-21T15:57:10.660Z,25.54
2023-05-21T15:59:43.653Z,25.52
2023-05-21T16:02:10.796Z,25.55
2023-05-21T16:04:44.813Z,25.54
2023-05-21T16:07:11.883Z,25.36
2023-05-21T16:09:45.691Z,25.25
2023-05-21T16:12:12.714Z,25.10
2023-05-21T16:14:46.725Z,24.87
2023-05-21T16:17:13.846Z,24.82
2023-05-21T16:19:47.897Z,24.90
2023-05-21T16:22:21.706Z,25.08
2023-05-21T16:24:55.751Z,25.08
2023-05-21T16:27:29.736Z,25.15
2023-05-21T16:30:04.400Z,25.22
2023-05-21T16:32:37.762Z,25.11
2023-05-21T16:35:11.936Z,24.82
2023-05-21T16:37:45.694Z,24.47
2023-05-21T16:40:20.860Z,24.41
2023-05-21T16:42:54.668Z,24.33
2023-05-21T16:45:29.696Z,24.13
2023-05-21T16:48:02.844Z,23.95
2023-05-21T16:50:29.826Z,23.78
2023-05-21T16:53:03.681Z,23.69
2023-05-21T16:55:31.638Z,23.65
2023-05-21T16:58:05.740Z,23.59
2023-05-21T17:00:33.694Z,23.56
2023-05-21T17:03:07.909Z,23.52
2023-05-21T17:05:41.737Z,23.46
2023-05-21T17:08:09.185Z,23.34
2023-05-21T17:10:42.786Z,23.29
2023-05-21T17:13:21.289Z,23.34
2023-05-21T17:15:56.017Z,23.27
2023-05-21T17:18:23.066Z,23.19
2023-05-21T17:20:56.839Z,23.10
2023-05-21T17:23:30.661Z,22.93
2023-05-21T17:26:04.697Z,22.93
2023-05-21T17:28:37.850Z,22.89
2023-05-21T17:31:17.782Z,22.84
2023-05-21T17:33:51.788Z,22.74
2023-05-21T17:36:25.755Z,22.89
2023-05-21T17:38:52.702Z,22.85
2023-05-21T17:41:25.787Z,22.79
2023-05-21T17:43:52.729Z,22.82
2023-05-21T17:46:19.807Z,22.80
2023-05-21T17:48:53.912Z,22.70
2023-05-21T17:51:20.850Z,22.68
2023-05-21T17:53:54.732Z,22.64
2023-05-21T17:56:28.771Z,22.46
2023-05-21T17:59:02.744Z,22.57
2023-05-21T18:01:29.839Z,22.44
2023-05-21T18:04:03.783Z,22.41
2023-05-21T18:06:31.502Z,22.21
2023-05-21T18:09:05.804Z,22.25
2023-05-21T18:11:32.841Z,22.29
2023-05-21T18:14:06.844Z,22.18
2023-05-21T18:16:33.833Z,22.25
2023-05-21T18:19:06.081Z,22.12
2023-05-21T18:21:40.899Z,22.09
2023-05-21T18:24:08.272Z,22.11
2023-05-21T18:26:35.166Z,22.05
2023-05-21T18:29:08.770Z,22.00
2023-05-21T18:31:35.671Z,21.92
2023-05-21T18:34:08.799Z,21.89
2023-05-21T18:36:39.134Z,21.87
2023-05-21T18:39:15.822Z,21.80
2023-05-21T18:41:43.005Z,21.76
2023-05-21T18:44:16.811Z,21.69
2023-05-21T18:46:44.666Z,21.64
2023-05-21T18:49:18.840Z,21.62
2023-05-21T18:51:45.783Z,21.56
2023-05-21T18:54:18.768Z,21.50
2023-05-21T18:56:45.766Z,21.44
2023-05-21T18:59:19.835Z,21.33
2023-05-21T19:01:46.843Z,21.23
2023-05-21T19:04:14.040Z,21.25
2023-05-21T19:06:47.862Z,21.18
2023-05-21T19:09:20.807Z,21.09
2023-05-21T19:11:53.833Z,21.04
2023-05-21T19:14:21.364Z,20.96
2023-05-21T19:16:54.882Z,20.88
2023-05-21T19:19:21.956Z,20.78
2023-05-21T19:21:55.838Z,20.74
2023-05-21T19:24:22.962Z,20.62
2023-05-21T19:26:56.932Z,20.59
2023-05-21T19:29:29.887Z,20.49
2023-05-21T19:32:03.906Z,20.40
2023-05-21T19:34:31.176Z,20.28
2023-05-21T19:37:04.866Z,20.22
2023-05-21T19:39:48.779Z,20.14
2023-05-21T19:42:17.682Z,20.07
2023-05-21T19:44:50.843Z,20.01
2023-05-21T19:47:23.964Z,19.91
2023-05-21T19:49:57.841Z,19.85
2023-05-21T19:52:31.849Z,19.75
2023-05-21T19:55:11.942Z,19.72
2023-05-21T19:57:46.918Z,19.61
2023-05-21T20:00:20.869Z,19.56
2023-05-21T20:02:48.123Z,19.46
2023-05-21T20:05:15.344Z,19.41
2023-05-21T20:07:48.960Z,19.33
2023-05-21T20:10:22.979Z,19.29
2023-05-21T20:12:49.916Z,19.19
2023-05-21T20:15:24.968Z,19.13
2023-05-21T20:17:51.949Z,19.05
2023-05-21T20:20:25.834Z,18.98
2023-05-21T20:23:00.865Z,18.97
2023-05-21T20:25:34.062Z,18.92
2023-05-21T20:28:10.834Z,18.91
2023-05-21T20:30:55.393Z,18.84
2023-05-21T20:33:28.855Z,18.85
2023-05-21T20:35:56.210Z,18.78
2023-05-21T20:38:32.783Z,18.80
2023-05-21T20:41:00.745Z,18.78
2023-05-21T20:43:34.930Z,18.78
2023-05-21T20:46:02.746Z,18.77
2023-05-21T20:48:36.808Z,18.72
2023-05-21T20:51:04.855Z,18.64
2023-05-21T20:53:32.273Z,18.70
2023-05-21T20:56:08.184Z,18.64
2023-05-21T20:58:41.939Z,18.48
2023-05-21T21:01:11.084Z,18.58
2023-05-21T21:03:47.962Z,18.47
2023-05-21T21:06:19.079Z,18.43
2023-05-21T21:08:52.846Z,18.42
2023-05-21T21:11:26.855Z,18.38
2023-05-21T21:14:00.001Z,18.27
2023-05-21T21:16:34.065Z,18.24
2023-05-21T21:19:01.583Z,18.23
2023-05-21T21:21:35.871Z,18.19
2023-05-21T21:24:03.009Z,17.99
2023-05-21T21:26:36.891Z,18.11
2023-05-21T21:29:10.085Z,18.19
2023-05-21T21:31:50.868Z,18.32
2023-05-21T21:34:17.847Z,18.48
2023-05-21T21:36:50.913Z,18.50
2023-05-21T21:39:18.103Z,18.49
2023-05-21T21:41:51.993Z,18.56
2023-05-21T21:44:19.919Z,18.54
2023-05-21T21:46:53.974Z,18.59
2023-05-21T21:49:27.947Z,18.61
2023-05-21T21:51:58.158Z,18.65
2023-05-21T21:54:32.018Z,18.67
2023-05-21T21:56:59.754Z,18.73
2023-05-21T21:59:32.915Z,18.73
2023-05-21T22:02:03.160Z,18.80
2023-05-21T22:04:36.899Z,18.78
2023-05-21T22:07:04.036Z,18.84
2023-05-21T22:09:37.996Z,18.84
2023-05-21T22:12:07.965Z,18.75
2023-05-21T22:14:41.952Z,18.84
2023-05-21T22:17:09.393Z,18.81
2023-05-21T22:19:43.034Z,18.81
2023-05-21T22:22:10.353Z,18.73
2023-05-21T22:24:43.945Z,18.60
2023-05-21T22:27:17.073Z,18.75
2023-05-21T22:29:50.131Z,18.69
2023-05-21T22:32:23.865Z,18.62
2023-05-21T22:34:57.118Z,18.69
2023-05-21T22:37:32.984Z,18.63
2023-05-21T22:40:00.200Z,18.64
2023-05-21T22:42:33.971Z,18.41
2023-05-21T22:45:01.203Z,18.48
2023-05-21T22:47:35.074Z,18.46
2023-05-21T22:50:04.678Z,18.49
2023-05-21T22:52:38.953Z,18.32
2023-05-21T22:55:06.674Z,18.34
2023-05-21T22:57:40.027Z,18.24
2023-05-21T23:00:08.047Z,18.08
2023-05-21T23:02:42.646Z,18.17
2023-05-21T23:05:16.150Z,18.14
2023-05-21T23:07:50.016Z,18.11
2023-05-21T23:10:24.282Z,18.05
2023-05-21T23:12:51.322Z,18.04
2023-05-21T23:15:26.327Z,18.02
2023-05-21T23:17:55.536Z,17.98
2023-05-21T23:20:30.077Z,17.91
2023-05-21T23:22:57.061Z,17.90
2023-05-21T23:25:31.262Z,17.86
2023-05-21T23:28:19.078Z,17.79
2023-05-21T23:30:53.084Z,17.65
2023-05-21T23:33:20.145Z,17.67
2023-05-21T23:35:54.043Z,17.65
2023-05-21T23:38:21.129Z,17.59
2023-05-21T23:40:55.267Z,17.68
2023-05-21T23:43:22.084Z,17.66
2023-05-21T23:45:56.224Z,17.60
2023-05-21T23:48:30.178Z,17.56
2023-05-21T23:51:03.941Z,17.53
2023-05-21T23:53:38.051Z,17.50
2023-05-21T23:56:05.959Z,17.49
2023-05-21T23:58:38.953Z,17.52
